Time;durP1;ratioP1;P1;durP2;ratioP2;P2;SDS_P1;SDS_P2;PMS_P1;PMS_P2;Temp;Humidity;BMP_temperature;BMP_pressure;BME280_temperature;BME280_humidity;BME280_pressure;Samples;Min_cycle;Max_cycle;Signal;HPM_P1;HPM_P2
2021/12/20 00:00:16;;;;;;;22.83;17.37;;;6.70;99.90;;;;;;4994052;28;20449;-57
2021/12/20 00:02:44;;;;;;;25.10;18.23;;;6.70;99.90;;;;;;4994305;28;20409;-58
2021/12/20 00:05:12;;;;;;;23.10;16.70;;;6.70;99.90;;;;;;4993854;28;20437;-55
2021/12/20 00:07:37;;;;;;;17.40;14.17;;;6.70;99.90;;;;;;4994324;28;20413;-58
2021/12/20 00:10:04;;;;;;;18.63;15.43;;;6.60;99.90;;;;;;4992699;28;20436;-58
2021/12/20 00:12:30;;;;;;;25.47;17.77;;;6.70;99.90;;;;;;4994431;28;20169;-58
2021/12/20 00:14:55;;;;;;;18.97;14.37;;;6.70;99.90;;;;;;4993808;28;20517;-57
2021/12/20 00:17:21;;;;;;;19.03;15.57;;;6.60;99.90;;;;;;4994485;28;20737;-58
2021/12/20 00:19:47;;;;;;;18.40;15.53;;;6.60;99.90;;;;;;4994358;28;20170;-59
2021/12/20 00:22:12;;;;;;;22.97;17.90;;;6.60;99.90;;;;;;4994064;28;20260;-58
2021/12/20 00:24:38;;;;;;;19.47;16.70;;;6.70;99.90;;;;;;4992781;28;20217;-56
2021/12/20 00:27:07;;;;;;;21.87;16.80;;;6.50;99.90;;;;;;5002287;28;20181;-58
2021/12/20 00:29:33;;;;;;;20.00;15.93;;;6.50;99.90;;;;;;4993918;28;20187;-59
2021/12/20 00:31:59;;;;;;;18.83;15.27;;;6.60;99.90;;;;;;4993070;28;20459;-56
2021/12/20 00:34:24;;;;;;;20.33;15.77;;;6.60;99.90;;;;;;4993469;28;20473;-58
2021/12/20 00:36:57;;;;;;;19.93;14.50;;;6.60;99.90;;;;;;4993435;28;20183;-55
2021/12/20 00:42:07;;;;;;;20.90;16.83;;;6.80;99.90;;;;;;4993984;28;20484;-57
2021/12/20 00:44:33;;;;;;;19.40;14.50;;;6.90;99.90;;;;;;4993935;28;20429;-58
2021/12/20 00:46:59;;;;;;;19.47;15.37;;;7.00;99.90;;;;;;4993901;28;20509;-56
2021/12/20 00:49:24;;;;;;;19.87;16.20;;;6.90;99.90;;;;;;4993757;28;20225;-58
2021/12/20 00:51:50;;;;;;;16.07;12.30;;;6.90;99.90;;;;;;4993356;28;20169;-58
2021/12/20 00:54:15;;;;;;;20.30;16.50;;;6.80;99.90;;;;;;4993597;28;20192;-57
2021/12/20 00:56:41;;;;;;;21.00;15.60;;;6.90;99.90;;;;;;4993508;28;20661;-59
2021/12/20 00:59:07;;;;;;;19.40;15.10;;;7.00;99.90;;;;;;4993656;28;20249;-59
2021/12/20 01:01:33;;;;;;;17.83;15.37;;;6.90;99.90;;;;;;4993732;28;20701;-59
2021/12/20 01:03:59;;;;;;;20.00;15.50;;;7.00;99.90;;;;;;4993317;28;20516;-58
2021/12/20 01:06:24;;;;;;;20.30;16.60;;;7.00;99.90;;;;;;4993248;28;20261;-56
2021/12/20 01:08:51;;;;;;;16.10;13.30;;;6.90;99.90;;;;;;4993489;28;20187;-58
2021/12/20 01:11:22;;;;;;;22.47;16.40;;;6.90;99.90;;;;;;4993679;28;20254;-58
2021/12/20 01:13:48;;;;;;;20.67;16.60;;;6.90;99.90;;;;;;4993593;28;20476;-53
2021/12/20 01:16:14;;;;;;;22.47;18.77;;;6.90;99.90;;;;;;4993396;28;20471;-58
2021/12/20 01:18:40;;;;;;;20.57;17.17;;;6.70;99.90;;;;;;4993303;28;20479;-58
2021/12/20 01:21:06;;;;;;;18.83;14.30;;;6.60;99.90;;;;;;4993024;28;20404;-58
2021/12/20 01:23:31;;;;;;;23.70;17.80;;;6.70;99.90;;;;;;4993522;28;20198;-59
2021/12/20 01:25:57;;;;;;;20.87;16.00;;;6.70;99.90;;;;;;4993242;28;20250;-59
2021/12/20 01:28:23;;;;;;;24.50;17.93;;;6.70;99.90;;;;;;4993166;28;20589;-57
2021/12/20 01:30:48;;;;;;;21.90;16.47;;;6.70;99.90;;;;;;4993749;28;20169;-57
2021/12/20 01:33:14;;;;;;;20.43;15.90;;;6.60;99.90;;;;;;4993195;28;20652;-59
2021/12/20 01:35:40;;;;;;;22.10;16.50;;;6.70;99.90;;;;;;4993186;28;20556;-57
2021/12/20 01:38:07;;;;;;;19.73;15.13;;;6.80;99.90;;;;;;4993486;28;20546;-56
2021/12/20 01:40:35;;;;;;;18.00;14.23;;;6.70;99.90;;;;;;4993367;28;20405;-57
2021/12/20 01:43:01;;;;;;;20.30;16.73;;;6.70;99.90;;;;;;4993671;28;20978;-56
2021/12/20 01:45:28;;;;;;;19.70;14.80;;;6.60;99.90;;;;;;4996878;28;20406;-57
2021/12/20 01:48:05;;;;;;;19.63;14.63;;;6.50;99.90;;;;;;4998991;28;20484;-58
2021/12/20 01:53:22;;;;;;;20.60;16.03;;;6.60;99.90;;;;;;4997062;28;20399;-57
2021/12/20 01:55:50;;;;;;;19.90;14.50;;;6.50;99.90;;;;;;4996750;28;20419;-52
2021/12/20 01:58:16;;;;;;;21.10;15.77;;;6.40;99.90;;;;;;4996557;28;20447;-57
2021/12/20 02:03:27;;;;;;;22.50;14.97;;;6.20;99.90;;;;;;4996492;28;20431;-58
2021/12/20 02:05:56;;;;;;;19.53;15.07;;;6.20;99.90;;;;;;4996139;28;20508;-56
2021/12/20 02:08:25;;;;;;;21.80;16.60;;;6.10;99.90;;;;;;4996477;28;20503;-58
2021/12/20 02:10:56;;;;;;;19.20;14.50;;;6.10;99.90;;;;;;4996476;28;20412;-58
2021/12/20 02:13:24;;;;;;;19.73;14.17;;;6.10;99.90;;;;;;4996064;28;20950;-57
2021/12/20 02:15:51;;;;;;;21.97;16.37;;;6.10;99.90;;;;;;4996499;28;20773;-56
2021/12/20 02:18:17;;;;;;;20.13;14.80;;;6.00;99.90;;;;;;4995996;28;20468;-57
2021/12/20 02:20:43;;;;;;;20.97;15.80;;;5.90;99.90;;;;;;4995785;28;20782;-57
2021/12/20 02:23:09;;;;;;;17.70;14.27;;;6.00;99.90;;;;;;4996068;28;20221;-58
2021/12/20 02:25:35;;;;;;;18.27;14.50;;;6.00;99.90;;;;;;4995936;28;20415;-58
2021/12/20 02:28:08;;;;;;;22.30;16.30;;;6.00;99.90;;;;;;4995919;28;20420;-59
2021/12/20 02:30:45;;;;;;;19.77;15.40;;;6.20;99.90;;;;;;4995889;28;20447;-58
2021/12/20 02:38:42;;;;;;;19.93;14.07;;;6.10;99.90;;;;;;4995676;28;20486;-57
2021/12/20 02:41:17;;;;;;;21.73;16.23;;;6.10;99.90;;;;;;4995906;28;20443;-59
2021/12/20 02:43:52;;;;;;;23.00;15.73;;;6.00;99.90;;;;;;4996232;28;20427;-57
2021/12/20 02:46:50;;;;;;;21.87;16.57;;;6.00;99.90;;;;;;4995835;28;20819;-57
2021/12/20 02:49:13;;;;;;;21.60;14.80;;;6.00;99.90;;;;;;4995067;28;20417;-58
2021/12/20 02:51:40;;;;;;;21.00;14.13;;;6.00;99.90;;;;;;4995471;28;20439;-58
2021/12/20 02:54:08;;;;;;;19.80;15.83;;;6.10;99.90;;;;;;4995197;28;20432;-57
2021/12/20 02:56:35;;;;;;;19.50;14.80;;;6.10;99.90;;;;;;4995141;28;20476;-58
2021/12/20 02:59:02;;;;;;;22.53;16.17;;;6.10;99.90;;;;;;4995251;28;20503;-56
2021/12/20 03:01:28;;;;;;;22.40;16.63;;;6.00;99.90;;;;;;4995523;28;20508;-59
2021/12/20 03:03:55;;;;;;;20.80;14.10;;;6.00;99.90;;;;;;4995117;28;20469;-58
2021/12/20 03:06:30;;;;;;;24.63;16.10;;;6.10;99.90;;;;;;4995211;28;20259;-56
2021/12/20 03:08:57;;;;;;;22.03;16.53;;;6.10;99.90;;;;;;4995425;28;20483;-59
2021/12/20 03:11:25;;;;;;;18.07;14.17;;;6.20;99.90;;;;;;4995338;28;20435;-58
2021/12/20 03:13:56;;;;;;;21.03;17.00;;;6.10;99.90;;;;;;4994865;28;21007;-57
2021/12/20 03:16:22;;;;;;;23.23;16.63;;;6.20;99.90;;;;;;4995235;28;20738;-59
2021/12/20 03:18:47;;;;;;;23.97;16.67;;;6.20;99.90;;;;;;5002451;28;20479;-59
2021/12/20 03:21:13;;;;;;;20.57;14.30;;;6.20;99.90;;;;;;4994765;28;20172;-59
2021/12/20 03:23:39;;;;;;;26.67;16.17;;;6.30;99.90;;;;;;4994762;28;20259;-57
2021/12/20 03:26:05;;;;;;;24.90;16.90;;;6.30;99.90;;;;;;4994814;28;20649;-58
2021/12/20 03:28:30;;;;;;;19.40;14.53;;;6.30;99.90;;;;;;4994878;28;20413;-58
2021/12/20 03:30:56;;;;;;;24.07;16.83;;;6.30;99.90;;;;;;4994933;28;20172;-59
2021/12/20 03:33:22;;;;;;;18.20;14.23;;;6.40;99.90;;;;;;4994420;28;20200;-59
2021/12/20 03:35:48;;;;;;;20.87;15.20;;;6.40;99.90;;;;;;5010343;23;20279;-59
2021/12/20 03:38:13;;;;;;;17.27;13.17;;;6.20;99.90;;;;;;4994712;28;20198;-61
2021/12/20 03:40:39;;;;;;;23.67;16.53;;;6.30;99.90;;;;;;4995595;28;20241;-61
2021/12/20 03:43:06;;;;;;;24.93;16.73;;;6.30;99.90;;;;;;4996789;28;20197;-60
2021/12/20 03:45:33;;;;;;;28.87;20.70;;;6.40;99.90;;;;;;5008154;28;20243;-61
2021/12/20 03:47:59;;;;;;;26.90;18.90;;;6.30;99.90;;;;;;5014371;28;20414;-62
2021/12/20 03:50:25;;;;;;;25.10;19.30;;;6.00;99.90;;;;;;5013884;28;20458;-61
2021/12/20 03:52:51;;;;;;;25.37;18.13;;;5.80;99.90;;;;;;5014133;28;20403;-60
2021/12/20 03:55:16;;;;;;;30.13;20.37;;;5.70;99.90;;;;;;5014283;28;20196;-59
2021/12/20 03:57:42;;;;;;;23.23;16.97;;;5.70;99.90;;;;;;5014037;28;20201;-61
2021/12/20 04:00:11;;;;;;;29.90;19.83;;;5.80;99.90;;;;;;5014294;28;20668;-62
2021/12/20 04:02:43;;;;;;;23.80;16.73;;;5.80;99.90;;;;;;5012551;28;20248;-62
2021/12/20 04:05:11;;;;;;;22.87;17.40;;;5.90;99.90;;;;;;5013790;28;20501;-62
2021/12/20 04:07:37;;;;;;;26.97;17.70;;;6.00;99.90;;;;;;5013858;28;20408;-58
2021/12/20 04:10:04;;;;;;;28.17;18.90;;;6.00;99.90;;;;;;5013904;28;20404;-62
2021/12/20 04:12:29;;;;;;;25.10;17.30;;;6.00;99.90;;;;;;5014107;28;20407;-61
2021/12/20 04:14:55;;;;;;;22.53;17.00;;;6.00;99.90;;;;;;5013732;28;20435;-60
2021/12/20 04:17:21;;;;;;;29.93;18.83;;;6.10;99.90;;;;;;5013765;28;20278;-62
2021/12/20 04:19:47;;;;;;;27.33;18.30;;;6.10;99.90;;;;;;5013852;28;20486;-62
2021/12/20 04:22:14;;;;;;;26.13;17.80;;;6.10;99.90;;;;;;5013684;28;20168;-62
2021/12/20 04:24:40;;;;;;;31.00;18.80;;;6.10;99.90;;;;;;5013647;28;20188;-62
2021/12/20 04:27:06;;;;;;;22.50;16.50;;;6.10;99.90;;;;;;5014105;28;20411;-60
2021/12/20 04:29:31;;;;;;;23.57;16.07;;;6.10;99.90;;;;;;5013750;28;20171;-61
2021/12/20 04:31:58;;;;;;;33.50;17.10;;;6.10;99.90;;;;;;5013926;28;20305;-60
2021/12/20 04:34:24;;;;;;;25.63;16.97;;;6.20;99.90;;;;;;5013691;28;20208;-60
2021/12/20 04:36:50;;;;;;;28.30;18.50;;;6.20;99.90;;;;;;5013645;28;20388;-60
2021/12/20 04:39:19;;;;;;;26.23;19.17;;;6.10;99.90;;;;;;5013606;28;20605;-60
2021/12/20 04:41:45;;;;;;;30.30;19.30;;;6.10;99.90;;;;;;5013892;28;20420;-61
2021/12/20 04:44:11;;;;;;;25.97;17.33;;;6.10;99.90;;;;;;5013770;28;20424;-60
2021/12/20 04:46:37;;;;;;;22.77;16.60;;;6.10;99.90;;;;;;5013783;28;20804;-62
2021/12/20 04:49:03;;;;;;;24.17;16.10;;;5.90;99.90;;;;;;5013653;28;20171;-61
2021/12/20 04:51:29;;;;;;;25.57;17.70;;;6.00;99.90;;;;;;5013233;28;20188;-62
2021/12/20 04:53:54;;;;;;;24.33;16.80;;;6.00;99.90;;;;;;5013726;28;20880;-62
2021/12/20 04:56:20;;;;;;;24.77;17.37;;;6.00;99.90;;;;;;5012071;28;20168;-62
2021/12/20 04:58:46;;;;;;;25.17;17.10;;;6.00;99.90;;;;;;5012391;28;20200;-62
2021/12/20 05:01:11;;;;;;;26.33;18.00;;;6.00;99.90;;;;;;5011564;28;20178;-62
2021/12/20 05:03:37;;;;;;;24.53;16.30;;;6.00;99.90;;;;;;5014072;28;20234;-62
2021/12/20 05:06:02;;;;;;;24.73;16.57;;;6.00;99.90;;;;;;5012900;28;20203;-62
2021/12/20 05:08:34;;;;;;;24.30;15.50;;;6.00;99.90;;;;;;5013304;28;20175;-62
2021/12/20 05:11:06;;;;;;;23.00;16.70;;;5.90;99.90;;;;;;5013592;28;20243;-62
2021/12/20 05:13:32;;;;;;;23.23;15.90;;;6.00;99.90;;;;;;5013379;28;20399;-62
2021/12/20 05:15:58;;;;;;;23.57;16.07;;;6.00;99.90;;;;;;5013274;28;20500;-62
2021/12/20 05:18:24;;;;;;;28.90;19.17;;;5.90;99.90;;;;;;5014086;28;20457;-61
2021/12/20 05:20:49;;;;;;;27.57;18.53;;;5.90;99.90;;;;;;5016699;28;20497;-62
2021/12/20 05:23:15;;;;;;;24.20;16.60;;;5.90;99.90;;;;;;5016841;28;20164;-62
2021/12/20 05:25:41;;;;;;;23.97;15.80;;;6.00;99.90;;;;;;5016174;28;20219;-60
2021/12/20 05:28:08;;;;;;;24.07;15.53;;;6.00;99.90;;;;;;5016441;28;20230;-62
2021/12/20 05:30:35;;;;;;;18.10;13.30;;;6.10;99.90;;;;;;5016788;28;20644;-62
2021/12/20 05:33:01;;;;;;;28.20;18.07;;;6.00;99.90;;;;;;5016920;28;20498;-61
2021/12/20 05:35:27;;;;;;;22.10;16.27;;;6.10;99.90;;;;;;5016513;28;20452;-62
2021/12/20 05:37:52;;;;;;;26.10;19.03;;;6.10;99.90;;;;;;5016627;28;20461;-62
2021/12/20 05:40:18;;;;;;;24.47;16.70;;;6.00;99.90;;;;;;5017072;28;20498;-62
2021/12/20 05:42:45;;;;;;;23.30;16.10;;;6.00;99.90;;;;;;5016327;28;20199;-62
2021/12/20 05:45:12;;;;;;;24.63;17.40;;;6.10;99.90;;;;;;5016553;28;20432;-61
2021/12/20 05:47:38;;;;;;;25.50;17.33;;;6.20;99.90;;;;;;5016629;28;20407;-62
2021/12/20 05:50:05;;;;;;;21.70;16.20;;;6.20;99.90;;;;;;5016239;28;20407;-61
2021/12/20 05:52:31;;;;;;;18.87;14.80;;;6.20;99.90;;;;;;5016759;28;20411;-61
2021/12/20 05:54:56;;;;;;;23.87;16.40;;;6.20;99.90;;;;;;5015520;28;20450;-62
2021/12/20 05:57:23;;;;;;;22.50;14.53;;;6.10;99.90;;;;;;5016250;28;20240;-60
2021/12/20 05:59:48;;;;;;;20.27;14.47;;;6.10;99.90;;;;;;5016448;28;20176;-62
2021/12/20 06:02:14;;;;;;;22.50;14.60;;;6.10;99.90;;;;;;5016103;28;20419;-62
2021/12/20 06:04:39;;;;;;;21.47;14.30;;;6.10;99.90;;;;;;5016175;28;20188;-62
2021/12/20 06:07:05;;;;;;;22.37;14.83;;;6.20;99.90;;;;;;5016448;28;20175;-62
2021/12/20 06:09:31;;;;;;;22.37;15.20;;;6.20;99.90;;;;;;5016034;28;20219;-62
2021/12/20 06:11:59;;;;;;;21.97;15.20;;;6.30;99.90;;;;;;5015641;28;20174;-62
2021/12/20 06:14:29;;;;;;;18.30;12.90;;;6.20;99.90;;;;;;5016162;28;20270;-60
2021/12/20 06:16:57;;;;;;;21.40;14.50;;;6.20;99.90;;;;;;5017037;28;20403;-61
2021/12/20 06:19:27;;;;;;;21.20;14.30;;;6.20;99.90;;;;;;5016035;28;20457;-62
2021/12/20 06:21:53;;;;;;;19.00;14.23;;;6.10;99.90;;;;;;5015774;28;20434;-61
2021/12/20 06:24:19;;;;;;;18.77;12.80;;;6.20;99.90;;;;;;5015586;28;20844;-62
2021/12/20 06:26:45;;;;;;;18.63;12.60;;;6.10;99.90;;;;;;5014944;28;20412;-59
2021/12/20 06:29:11;;;;;;;15.63;12.03;;;6.10;99.90;;;;;;5014915;28;20184;-61
2021/12/20 06:31:36;;;;;;;20.13;12.23;;;6.00;99.90;;;;;;5014678;28;20407;-62
2021/12/20 06:34:02;;;;;;;16.93;12.73;;;6.00;99.90;;;;;;5015338;28;20211;-61
2021/12/20 06:36:29;;;;;;;20.67;13.23;;;6.20;99.90;;;;;;5015785;28;20599;-61
2021/12/20 06:38:56;;;;;;;19.20;12.37;;;6.10;99.90;;;;;;5015522;28;20195;-61
2021/12/20 06:41:23;;;;;;;19.53;13.10;;;6.20;99.90;;;;;;5015430;28;20415;-58
2021/12/20 06:43:49;;;;;;;17.27;12.47;;;6.20;99.90;;;;;;5015403;28;20747;-61
2021/12/20 06:46:16;;;;;;;20.37;14.40;;;6.20;99.90;;;;;;5015112;28;20435;-60
2021/12/20 06:48:42;;;;;;;26.60;18.10;;;6.20;99.90;;;;;;5015721;28;20418;-62
2021/12/20 06:51:07;;;;;;;18.67;13.20;;;6.10;99.90;;;;;;5015175;28;20410;-62
2021/12/20 06:53:33;;;;;;;18.50;13.10;;;6.00;99.90;;;;;;5014995;28;20176;-62
2021/12/20 06:55:59;;;;;;;16.60;11.57;;;6.10;99.90;;;;;;5014873;28;20217;-60
2021/12/20 06:58:24;;;;;;;20.70;13.20;;;6.10;99.90;;;;;;5014778;28;20196;-61
2021/12/20 07:00:53;;;;;;;18.13;12.23;;;6.10;99.90;;;;;;5014877;28;20164;-62
2021/12/20 07:03:19;;;;;;;20.80;14.67;;;6.10;99.90;;;;;;5014790;28;20642;-62
2021/12/20 07:05:45;;;;;;;20.27;12.67;;;6.10;99.90;;;;;;5014912;28;20427;-61
2021/12/20 07:08:11;;;;;;;18.67;12.97;;;6.00;99.90;;;;;;5014362;28;20410;-56
2021/12/20 07:10:39;;;;;;;21.03;14.37;;;6.00;99.90;;;;;;5014864;28;20183;-60
2021/12/20 07:13:05;;;;;;;22.50;15.20;;;6.10;99.90;;;;;;5014499;28;20202;-61
2021/12/20 07:15:32;;;;;;;25.10;15.30;;;6.10;99.90;;;;;;5014486;28;20423;-61
2021/12/20 07:17:58;;;;;;;23.10;15.63;;;6.20;99.90;;;;;;5014574;28;20885;-60
2021/12/20 07:20:24;;;;;;;22.57;16.27;;;6.10;99.90;;;;;;5014537;28;20444;-60
2021/12/20 07:22:50;;;;;;;22.93;15.50;;;5.90;99.90;;;;;;5014507;28;20410;-60
2021/12/20 07:25:15;;;;;;;22.90;16.03;;;5.90;99.90;;;;;;5014481;28;20916;-62
2021/12/20 07:27:41;;;;;;;25.83;16.63;;;5.90;99.90;;;;;;5014210;28;20190;-62
2021/12/20 07:30:08;;;;;;;24.30;15.93;;;5.90;99.90;;;;;;5014352;28;20605;-61
2021/12/20 07:32:33;;;;;;;22.70;14.43;;;6.00;99.90;;;;;;5014173;28;20176;-62
2021/12/20 07:34:59;;;;;;;22.70;15.60;;;6.00;99.90;;;;;;5014155;28;20605;-59
2021/12/20 07:37:27;;;;;;;23.97;15.40;;;5.90;99.90;;;;;;5014068;28;20782;-62
2021/12/20 07:39:53;;;;;;;26.60;17.87;;;6.00;99.90;;;;;;5014477;28;20218;-62
2021/12/20 07:42:18;;;;;;;25.70;17.47;;;6.10;99.90;;;;;;5013639;28;20947;-62
2021/12/20 07:44:44;;;;;;;19.50;13.80;;;6.10;99.90;;;;;;5013945;28;20423;-62
2021/12/20 07:47:10;;;;;;;22.00;16.57;;;6.20;99.90;;;;;;5014572;28;20174;-61
2021/12/20 07:49:36;;;;;;;23.83;17.53;;;6.10;99.90;;;;;;5010942;28;20426;-61
2021/12/20 07:52:02;;;;;;;21.40;14.80;;;6.00;99.90;;;;;;5002757;28;20742;-62
2021/12/20 07:54:28;;;;;;;20.13;15.20;;;6.10;99.90;;;;;;4994355;28;20188;-59
2021/12/20 07:56:54;;;;;;;19.83;15.57;;;6.10;99.90;;;;;;4995067;28;20409;-61
2021/12/20 07:59:19;;;;;;;20.50;15.53;;;6.20;99.90;;;;;;5013447;28;20263;-61
2021/12/20 08:01:45;;;;;;;20.43;15.17;;;6.20;99.90;;;;;;5014222;28;20176;-61
2021/12/20 08:04:10;;;;;;;23.47;16.33;;;6.10;99.90;;;;;;5013904;28;20177;-61
2021/12/20 08:06:36;;;;;;;22.90;16.17;;;5.90;99.90;;;;;;5014319;28;20183;-61
2021/12/20 08:09:02;;;;;;;23.90;16.47;;;5.60;99.90;;;;;;5014065;28;20544;-61
2021/12/20 08:11:28;;;;;;;16.97;13.77;;;5.70;99.90;;;;;;5013547;28;20176;-57
2021/12/20 08:13:54;;;;;;;19.03;13.57;;;5.80;99.90;;;;;;5013789;28;20407;-61
2021/12/20 08:16:20;;;;;;;17.80;13.73;;;6.00;99.90;;;;;;5013951;28;20258;-61
2021/12/20 08:18:46;;;;;;;19.43;14.17;;;6.20;99.90;;;;;;5013635;28;20246;-62
2021/12/20 08:21:14;;;;;;;18.20;13.70;;;6.20;99.90;;;;;;5008425;28;20415;-62
2021/12/20 08:23:40;;;;;;;20.90;15.33;;;6.30;99.90;;;;;;5012178;28;20419;-61
2021/12/20 08:26:08;;;;;;;21.50;15.17;;;6.30;99.90;;;;;;5013619;28;20992;-62
2021/12/20 08:28:35;;;;;;;19.40;13.30;;;6.20;99.90;;;;;;5013225;28;20507;-61
2021/12/20 08:31:02;;;;;;;20.57;15.73;;;6.10;99.90;;;;;;5013764;28;20407;-61
2021/12/20 08:33:28;;;;;;;23.43;14.50;;;6.20;99.90;;;;;;5013535;28;20423;-62
2021/12/20 08:35:54;;;;;;;19.10;14.70;;;6.20;99.90;;;;;;5013237;28;20537;-61
2021/12/20 08:38:20;;;;;;;21.37;15.53;;;6.30;99.90;;;;;;5013653;28;20196;-62
2021/12/20 08:40:47;;;;;;;17.50;13.77;;;6.30;99.90;;;;;;5012919;28;20251;-61
2021/12/20 08:43:14;;;;;;;19.90;14.87;;;6.40;99.90;;;;;;5013122;28;20407;-62
2021/12/20 08:45:41;;;;;;;20.27;14.03;;;6.50;99.90;;;;;;5013312;28;20493;-62
2021/12/20 08:48:06;;;;;;;19.30;14.10;;;6.50;99.90;;;;;;5013265;28;20417;-62
2021/12/20 08:50:33;;;;;;;17.10;13.83;;;6.50;99.90;;;;;;5013324;28;20412;-60
2021/12/20 08:52:59;;;;;;;19.53;14.53;;;6.60;99.90;;;;;;5013903;28;20201;-61
2021/12/20 08:55:25;;;;;;;17.30;13.60;;;6.60;99.90;;;;;;5017369;28;20456;-61
2021/12/20 08:57:51;;;;;;;21.13;16.27;;;6.70;99.90;;;;;;5017332;28;20188;-60
2021/12/20 09:00:24;;;;;;;20.03;14.50;;;6.70;99.90;;;;;;5017570;28;20405;-62
2021/12/20 09:02:50;;;;;;;23.20;16.53;;;6.90;99.90;;;;;;5017611;28;20424;-61
2021/12/20 09:05:17;;;;;;;24.17;18.47;;;6.90;99.90;;;;;;5017246;28;20807;-62
2021/12/20 09:07:42;;;;;;;25.53;17.50;;;6.90;99.90;;;;;;5017376;28;20410;-60
2021/12/20 09:10:10;;;;;;;27.07;19.17;;;6.90;99.90;;;;;;5017368;28;20409;-62
2021/12/20 09:12:36;;;;;;;24.73;17.90;;;6.70;99.90;;;;;;5016618;28;20255;-61
2021/12/20 09:15:02;;;;;;;29.70;19.40;;;6.50;99.90;;;;;;5017394;28;20569;-62
2021/12/20 09:17:27;;;;;;;31.37;18.90;;;6.70;99.90;;;;;;5016893;28;20662;-60
2021/12/20 09:19:53;;;;;;;23.10;16.67;;;6.90;99.90;;;;;;5016778;28;20404;-60
2021/12/20 09:22:19;;;;;;;24.60;19.10;;;7.20;99.90;;;;;;5016900;28;20753;-61
2021/12/20 09:24:45;;;;;;;26.53;19.57;;;7.20;99.90;;;;;;5016129;28;20455;-59
2021/12/20 09:27:12;;;;;;;26.20;18.00;;;7.10;99.90;;;;;;5016781;28;20182;-59
2021/12/20 09:29:38;;;;;;;26.67;19.50;;;7.00;99.90;;;;;;5016903;28;20162;-61
2021/12/20 09:32:06;;;;;;;25.17;18.80;;;7.00;99.90;;;;;;5016772;28;20407;-59
2021/12/20 09:34:31;;;;;;;31.13;21.97;;;7.20;99.90;;;;;;5015081;28;20212;-60
2021/12/20 09:37:03;;;;;;;29.70;19.47;;;7.10;99.90;;;;;;5016484;28;20403;-60
2021/12/20 09:39:29;;;;;;;26.13;18.00;;;6.90;99.90;;;;;;5016863;28;20208;-62
2021/12/20 09:42:00;;;;;;;30.07;20.30;;;6.80;99.90;;;;;;5016429;28;20918;-61
2021/12/20 09:44:27;;;;;;;27.40;18.60;;;6.70;99.90;;;;;;5016391;28;20193;-62
2021/12/20 09:46:57;;;;;;;29.73;20.47;;;6.70;99.90;;;;;;5016337;28;20395;-61
2021/12/20 09:49:23;;;;;;;26.27;19.27;;;6.70;99.90;;;;;;5016340;28;20403;-62
2021/12/20 09:51:50;;;;;;;29.20;20.03;;;6.80;99.90;;;;;;5016251;28;20421;-60
2021/12/20 09:54:16;;;;;;;27.57;19.87;;;6.80;99.90;;;;;;5030705;23;20524;-58
2021/12/20 09:56:43;;;;;;;30.80;20.67;;;6.80;99.90;;;;;;5016541;28;20393;-58
2021/12/20 09:59:12;;;;;;;26.93;18.00;;;6.80;99.90;;;;;;5016539;28;20228;-57
2021/12/20 10:01:39;;;;;;;34.10;22.23;;;6.70;99.90;;;;;;5016252;28;20539;-57
2021/12/20 10:04:06;;;;;;;27.43;18.63;;;6.60;99.90;;;;;;5021119;28;20432;-58
2021/12/20 10:06:33;;;;;;;32.73;22.10;;;6.80;99.90;;;;;;5036665;28;20434;-56
2021/12/20 10:09:09;;;;;;;31.07;20.57;;;6.90;99.90;;;;;;5035755;28;20417;-55
2021/12/20 10:11:35;;;;;;;30.23;21.50;;;7.00;99.90;;;;;;5035788;28;20384;-55
2021/12/20 10:14:12;;;;;;;28.97;21.10;;;7.20;99.90;;;;;;5036023;28;20431;-57
2021/12/20 10:16:41;;;;;;;25.43;18.77;;;7.10;99.90;;;;;;5036198;28;20174;-58
2021/12/20 10:19:28;;;;;;;29.50;19.53;;;7.20;99.90;;;;;;5035778;28;20442;-57
2021/12/20 10:21:56;;;;;;;33.37;21.53;;;7.20;99.90;;;;;;5035874;28;20386;-58
2021/12/20 10:24:30;;;;;;;27.90;19.10;;;7.10;99.90;;;;;;5031213;28;20433;-58
2021/12/20 10:26:56;;;;;;;24.50;15.70;;;7.30;99.90;;;;;;5015817;28;20521;-55
2021/12/20 10:29:22;;;;;;;23.57;16.40;;;7.00;99.90;;;;;;5015533;28;20540;-58
2021/12/20 10:31:50;;;;;;;26.77;17.17;;;6.50;99.90;;;;;;5016324;28;20409;-56
2021/12/20 10:34:18;;;;;;;25.57;17.57;;;6.70;99.90;;;;;;5015893;28;20443;-58
2021/12/20 10:36:55;;;;;;;24.63;16.43;;;6.80;99.90;;;;;;5015802;28;20420;-59
2021/12/20 10:39:37;;;;;;;26.93;17.27;;;6.80;99.90;;;;;;5015595;28;20436;-58
2021/12/20 10:42:39;;;;;;;16.17;11.40;;;6.60;99.90;;;;;;5014906;28;20986;-57
2021/12/20 10:45:09;;;;;;;20.10;14.10;;;6.60;99.90;;;;;;5000393;28;20443;-57
2021/12/20 10:47:36;;;;;;;20.57;14.00;;;7.10;99.90;;;;;;5015958;28;20767;-57
2021/12/20 10:50:34;;;;;;;19.07;14.17;;;7.20;99.90;;;;;;5015314;28;20401;-58
2021/12/20 10:53:23;;;;;;;20.77;13.47;;;7.30;99.90;;;;;;5015555;28;20462;-58
2021/12/20 10:55:58;;;;;;;22.10;15.70;;;7.60;99.90;;;;;;5013913;28;20470;-58
2021/12/20 10:58:31;;;;;;;22.80;15.70;;;7.50;99.90;;;;;;5015597;28;20495;-58
2021/12/20 11:04:13;;;;;;;20.47;13.27;;;7.30;99.90;;;;;;4984533;28;20826;-59
2021/12/20 11:09:20;;;;;;;17.97;13.53;;;7.60;99.90;;;;;;5015207;28;20961;-59
2021/12/20 11:12:01;;;;;;;20.27;13.00;;;7.90;99.90;;;;;;5014173;28;20419;-59
2021/12/20 11:14:28;;;;;;;16.87;12.00;;;7.70;99.90;;;;;;5015108;28;20455;-57
2021/12/20 11:16:57;;;;;;;18.90;13.90;;;8.40;99.90;;;;;;5014865;28;20416;-59
2021/12/20 11:19:39;;;;;;;17.80;12.53;;;9.40;99.90;;;;;;5014798;28;20540;-58
2021/12/20 11:22:12;;;;;;;21.00;13.00;;;10.40;99.90;;;;;;5015387;28;20463;-58
2021/12/20 11:24:51;;;;;;;18.10;12.43;;;11.40;99.90;;;;;;5014871;28;20562;-57
2021/12/20 11:27:32;;;;;;;18.23;12.47;;;11.60;99.90;;;;;;5013459;28;20427;-58
2021/12/20 11:30:01;;;;;;;18.00;13.77;;;11.70;99.90;;;;;;5014543;28;20387;-57
2021/12/20 11:32:28;;;;;;;19.60;13.57;;;13.10;99.90;;;;;;5015159;28;20410;-58
2021/12/20 11:34:54;;;;;;;17.40;12.30;;;13.70;99.90;;;;;;5014885;28;20426;-58
2021/12/20 11:37:25;;;;;;;17.20;13.60;;;12.40;99.90;;;;;;5014284;28;20470;-58
2021/12/20 11:39:52;;;;;;;16.00;12.73;;;11.10;99.90;;;;;;5013340;28;20385;-58
2021/12/20 11:42:19;;;;;;;17.03;11.50;;;10.10;99.90;;;;;;5014585;28;20425;-57
2021/12/20 11:44:47;;;;;;;15.60;10.70;;;9.70;99.90;;;;;;5014719;28;20423;-59
2021/12/20 11:47:43;;;;;;;13.23;10.60;;;10.80;99.90;;;;;;5014635;28;20472;-59
2021/12/20 11:50:17;;;;;;;11.33;9.87;;;13.10;99.90;;;;;;5014688;28;20384;-58
2021/12/20 11:52:45;;;;;;;17.93;11.10;;;15.40;98.70;;;;;;5016819;28;20405;-59
2021/12/20 11:55:26;;;;;;;12.80;10.93;;;15.70;96.60;;;;;;5014063;28;20508;-59
2021/12/20 11:57:59;;;;;;;13.70;10.43;;;14.20;96.60;;;;;;5014484;28;20458;-58
2021/12/20 12:00:26;;;;;;;16.50;11.23;;;11.60;99.30;;;;;;5015432;28;20856;-57
2021/12/20 12:03:07;;;;;;;19.93;11.87;;;9.80;99.90;;;;;;5014492;28;20780;-56
2021/12/20 12:05:59;;;;;;;17.03;10.70;;;8.70;99.90;;;;;;5014620;28;20447;-58
2021/12/20 12:08:42;;;;;;;14.80;11.93;;;8.30;99.90;;;;;;5014483;28;20465;-59
2021/12/20 12:11:08;;;;;;;21.73;14.13;;;8.20;99.90;;;;;;5014102;28;20809;-56
2021/12/20 12:13:47;;;;;;;22.83;15.63;;;7.90;99.90;;;;;;5014598;28;20474;-56
2021/12/20 12:19:12;;;;;;;23.07;15.90;;;7.80;99.90;;;;;;5002126;28;20472;-60
2021/12/20 12:21:41;;;;;;;21.50;14.70;;;7.60;99.90;;;;;;5014597;28;20497;-59
2021/12/20 12:24:11;;;;;;;17.43;13.77;;;7.70;99.90;;;;;;5014576;28;20524;-60
2021/12/20 12:26:49;;;;;;;20.17;15.07;;;7.70;99.90;;;;;;5014510;28;20426;-59
2021/12/20 12:29:22;;;;;;;22.43;14.90;;;7.50;99.90;;;;;;5011724;28;20428;-59
2021/12/20 12:31:54;;;;;;;19.67;14.07;;;7.50;99.90;;;;;;5014430;28;20394;-59
2021/12/20 12:34:21;;;;;;;20.10;13.90;;;7.00;99.90;;;;;;5013654;28;20426;-59
2021/12/20 12:36:47;;;;;;;19.50;14.03;;;6.90;99.90;;;;;;5014042;28;20409;-57
2021/12/20 12:39:25;;;;;;;22.73;14.20;;;6.90;99.90;;;;;;5013825;28;20474;-59
2021/12/20 12:41:59;;;;;;;21.03;14.40;;;6.90;99.90;;;;;;5014582;28;20817;-59
2021/12/20 12:44:30;;;;;;;17.60;13.60;;;7.10;99.90;;;;;;5013873;28;20426;-58
2021/12/20 12:46:58;;;;;;;23.80;14.33;;;7.30;99.90;;;;;;5014130;28;20413;-58
2021/12/20 12:49:29;;;;;;;19.20;12.57;;;7.40;99.90;;;;;;5013826;28;20492;-59
2021/12/20 12:52:04;;;;;;;21.47;14.17;;;7.50;99.90;;;;;;5013651;28;20377;-59
2021/12/20 12:54:32;;;;;;;18.77;12.77;;;7.60;99.90;;;;;;5013040;28;20484;-57
2021/12/20 12:57:10;;;;;;;16.73;10.70;;;7.70;99.90;;;;;;5013785;28;20417;-58
2021/12/20 12:59:57;;;;;;;16.23;11.47;;;7.80;99.90;;;;;;5014071;28;20412;-59
2021/12/20 13:02:30;;;;;;;18.33;12.20;;;7.70;99.90;;;;;;5004078;28;20417;-57